Time;durP1;ratioP1;P1;durP2;ratioP2;P2;SDS_P1;SDS_P2;PMS_P1;PMS_P2;Temp;Humidity;BMP_temperature;BMP_pressure;BME280_temperature;BME280_humidity;BME280_pressure;Samples;Min_cycle;Max_cycle;Signal;HPM_P1;HPM_P2
2022/05/21 00:00:32;;;;;;;16.83;7.78;;;;;;;11.30;90.87;101864.97;5072182;28;20407;-68
2022/05/21 00:02:58;;;;;;;12.27;6.65;;;;;;;11.33;91.05;101867.28;5072140;28;20032;-68
2022/05/21 00:05:26;;;;;;;16.02;7.10;;;;;;;11.35;91.27;101868.78;5072127;28;20028;-68
2022/05/21 00:07:52;;;;;;;14.57;6.50;;;;;;;11.36;90.74;101869.59;5072035;28;20040;-68
2022/05/21 00:10:20;;;;;;;12.52;6.75;;;;;;;11.36;90.85;101864.25;5072004;28;20111;-68
2022/05/21 00:12:46;;;;;;;28.75;7.43;;;;;;;11.38;91.00;101871.09;5071810;28;20042;-68
2022/05/21 00:15:15;;;;;;;14.73;6.97;;;;;;;11.39;91.04;101871.91;5071797;28;20028;-68
2022/05/21 00:17:41;;;;;;;12.05;6.35;;;;;;;11.39;91.06;101872.72;5045134;28;20082;-68
2022/05/21 00:20:47;;;;;;;11.75;5.53;;;;;;;11.42;91.31;101866.22;5052624;28;20025;-68
2022/05/21 00:22:53;;;;;;;16.77;5.90;;;;;;;11.43;90.52;101864.41;5052580;28;20419;-68
2022/05/21 00:25:19;;;;;;;11.43;5.55;;;;;;;11.47;90.60;101869.19;5052540;28;20036;-68
2022/05/21 00:27:44;;;;;;;12.68;5.90;;;;;;;11.47;90.65;101863.84;5052611;28;20029;-68
2022/05/21 00:30:10;;;;;;;13.70;5.90;;;;;;;11.48;90.71;101872.72;5052347;28;20029;-68
2022/05/21 00:32:36;;;;;;;11.38;5.88;;;;;;;11.48;90.86;101873.53;5051915;28;20033;-68
2022/05/21 00:35:01;;;;;;;17.95;6.70;;;;;;;11.50;90.25;101870.66;5052456;28;20098;-68
2022/05/21 00:37:26;;;;;;;10.18;5.88;;;;;;;11.49;90.19;101875.19;5052228;28;20035;-68
2022/05/21 00:39:52;;;;;;;9.18;5.10;;;;;;;11.50;90.16;101870.66;5052476;28;20050;-68
2022/05/21 00:42:17;;;;;;;12.20;4.95;;;;;;;11.50;90.04;101866.19;5052417;28;20076;-68
2022/05/21 00:44:42;;;;;;;9.38;5.22;;;;;;;11.51;90.24;101865.16;5071455;28;20032;-68
2022/05/21 00:47:08;;;;;;;13.32;5.65;;;;;;;11.54;90.56;101872.00;5071153;28;20082;-68
2022/05/21 00:49:36;;;;;;;8.07;4.90;;;;;;;11.57;90.16;101868.97;5053291;28;20124;-68
2022/05/21 00:52:12;;;;;;;11.77;4.88;;;;;;;11.58;90.29;101860.78;5070895;28;20028;-68
2022/05/21 00:54:46;;;;;;;8.52;4.28;;;;;;;11.62;89.91;101863.91;5071197;28;20073;-68
2022/05/21 00:57:28;;;;;;;12.13;5.57;;;;;;;11.61;90.38;101875.63;5071320;28;20026;-68
2022/05/21 01:00:01;;;;;;;12.50;4.57;;;;;;;11.60;89.76;101885.44;5071196;28;20024;-68
2022/05/21 01:02:33;;;;;;;13.88;4.65;;;;;;;11.62;89.90;101878.09;5071036;28;20028;-68
2022/05/21 01:05:00;;;;;;;10.65;4.85;;;;;;;11.64;89.49;101883.28;5071102;28;20525;-68
2022/05/21 01:07:26;;;;;;;14.30;7.10;;;;;;;11.64;90.37;101869.91;5070953;28;20635;-68
2022/05/21 01:09:55;;;;;;;11.15;3.95;;;;;;;11.65;89.82;101876.09;5070988;28;20040;-68
2022/05/21 01:12:25;;;;;;;15.63;5.18;;;;;;;11.65;89.86;101868.91;5070950;28;20025;-68
2022/05/21 01:14:55;;;;;;;9.82;4.38;;;;;;;11.63;89.46;101876.25;5070723;28;20036;-68
2022/05/21 01:17:21;;;;;;;9.55;3.60;;;;;;;11.63;89.50;101871.75;5062555;28;20029;-69
2022/05/21 01:20:02;;;;;;;11.25;5.00;;;;;;;11.64;89.81;101877.94;5062132;28;20042;-69
2022/05/21 01:22:45;;;;;;;7.63;3.40;;;;;;;11.66;89.67;101875.06;5057987;28;20028;-70
2022/05/21 01:25:14;;;;;;;10.18;3.72;;;;;;;11.65;90.05;101878.75;5058209;28;20793;-69
2022/05/21 01:27:40;;;;;;;8.18;3.90;;;;;;;11.65;90.01;101870.75;5063882;28;20464;-69
2022/05/21 01:30:09;;;;;;;9.30;4.20;;;;;;;11.68;89.88;101870.38;5061477;28;20048;-69
2022/05/21 01:32:35;;;;;;;6.88;3.60;;;;;;;11.69;89.66;101875.56;5060473;28;20016;-69
2022/05/21 01:35:01;;;;;;;9.18;4.45;;;;;;;11.68;89.31;101865.84;5062744;28;20484;-69
2022/05/21 01:37:27;;;;;;;11.48;4.28;;;;;;;11.72;89.63;101861.81;5060599;28;20132;-69
2022/05/21 01:39:53;;;;;;;12.52;4.07;;;;;;;11.72;89.33;101864.50;5061864;28;20162;-69
2022/05/21 01:42:18;;;;;;;9.45;4.18;;;;;;;11.73;89.41;101873.34;5064329;28;20562;-69
2022/05/21 01:44:46;;;;;;;8.48;3.72;;;;;;;11.73;89.36;101866.16;5045903;28;20044;-69
2022/05/21 01:47:14;;;;;;;15.63;4.20;;;;;;;11.72;89.60;101859.16;5060870;28;20056;-69
2022/05/21 01:49:40;;;;;;;8.48;3.78;;;;;;;11.71;90.02;101856.66;5059921;28;20435;-69
2022/05/21 01:52:07;;;;;;;6.82;3.42;;;;;;;11.71;89.79;101870.00;5059480;28;20036;-70
2022/05/21 01:54:33;;;;;;;10.05;3.80;;;;;;;11.71;89.83;101868.19;5061527;28;20566;-70
2022/05/21 01:56:59;;;;;;;8.85;3.42;;;;;;;11.71;89.83;101872.69;5061318;28;20056;-69
2022/05/21 01:59:25;;;;;;;10.02;3.25;;;;;;;11.68;89.93;101865.03;5058007;28;20484;-69
2022/05/21 02:01:51;;;;;;;10.18;4.10;;;;;;;11.72;90.47;101869.03;5061760;28;20387;-70
2022/05/21 02:04:17;;;;;;;11.05;4.70;;;;;;;11.72;89.94;101864.50;5059287;28;20028;-69
2022/05/21 02:06:43;;;;;;;10.68;4.35;;;;;;;11.68;89.95;101867.69;5059076;28;20029;-69
2022/05/21 02:09:09;;;;;;;11.68;3.83;;;;;;;11.71;89.67;101868.19;5058141;28;20048;-69
2022/05/21 02:11:35;;;;;;;11.77;3.67;;;;;;;11.71;89.83;101860.19;5063799;28;20396;-69
2022/05/21 02:14:01;;;;;;;12.88;4.90;;;;;;;11.69;90.18;101864.88;5059892;28;20061;-69
2022/05/21 02:16:28;;;;;;;10.52;4.25;;;;;;;11.74;90.05;101864.34;5057819;28;20081;-69
2022/05/21 02:18:53;;;;;;;10.77;4.93;;;;;;;11.73;90.06;101874.16;5061356;28;20376;-69
2022/05/21 02:21:19;;;;;;;18.67;5.50;;;;;;;11.75;89.79;101874.00;5057977;28;20048;-69
2022/05/21 02:23:44;;;;;;;11.60;6.00;;;;;;;11.73;89.96;101876.84;5060516;28;20044;-69
2022/05/21 02:26:10;;;;;;;13.65;5.22;;;;;;;11.75;90.33;101874.84;5058083;28;20029;-69
2022/05/21 02:28:35;;;;;;;14.38;4.35;;;;;;;11.75;90.23;101876.69;5058335;28;20036;-69
2022/05/21 02:31:01;;;;;;;12.35;5.40;;;;;;;11.76;90.34;101870.31;5060304;28;20381;-69
2022/05/21 02:33:26;;;;;;;9.48;4.35;;;;;;;11.76;90.60;101871.16;5056950;28;20036;-69
2022/05/21 02:35:52;;;;;;;11.00;4.40;;;;;;;11.78;90.57;101868.28;5059080;28;20116;-69
2022/05/21 02:41:01;;;;;;;11.15;4.63;;;;;;;11.78;90.43;101866.44;5059982;28;20036;-69
2022/05/21 02:43:29;;;;;;;8.52;4.30;;;;;;;11.76;90.41;101863.16;5060422;28;20040;-69
2022/05/21 02:45:54;;;;;;;12.13;4.45;;;;;;;11.75;90.20;101852.63;5058571;28;20081;-69
2022/05/21 02:48:20;;;;;;;10.25;4.97;;;;;;;11.76;90.64;101863.16;5058274;28;20037;-70
2022/05/21 02:50:45;;;;;;;11.20;5.38;;;;;;;11.75;90.76;101857.97;5057512;28;20033;-70
2022/05/21 02:53:18;;;;;;;11.18;5.28;;;;;;;11.79;90.92;101864.63;5039224;28;20468;-70
2022/05/21 02:55:44;;;;;;;19.08;5.68;;;;;;;11.81;90.99;101858.06;5060297;28;20041;-70
2022/05/21 02:58:10;;;;;;;9.13;4.95;;;;;;;11.82;90.76;101865.09;5060606;28;20234;-70
2022/05/21 03:00:35;;;;;;;13.70;5.35;;;;;;;11.80;90.43;101863.59;5057856;28;20115;-70
2022/05/21 03:03:01;;;;;;;11.10;4.75;;;;;;;11.81;90.62;101871.44;5058435;28;20040;-70
2022/05/21 03:05:29;;;;;;;11.50;4.70;;;;;;;11.82;90.86;101869.63;5062496;28;20109;-69
2022/05/21 03:07:55;;;;;;;13.10;4.57;;;;;;;11.83;90.64;101868.59;5041012;28;20025;-69
2022/05/21 03:10:25;;;;;;;13.73;6.47;;;;;;;11.81;90.60;101871.44;5058709;28;20029;-69
2022/05/21 03:13:01;;;;;;;11.48;5.00;;;;;;;11.84;90.86;101872.91;5060648;28;20112;-69
2022/05/21 03:15:33;;;;;;;11.82;4.72;;;;;;;11.83;91.18;101865.91;5041842;28;20542;-69
2022/05/21 03:18:04;;;;;;;10.85;5.30;;;;;;;11.82;90.82;101875.78;5058288;28;20019;-69
2022/05/21 03:20:30;;;;;;;7.80;4.88;;;;;;;11.81;91.01;101867.94;5061035;28;20029;-69
2022/05/21 03:22:55;;;;;;;8.85;4.55;;;;;;;11.84;91.17;101870.25;5057576;28;20040;-69
2022/05/21 03:25:23;;;;;;;10.57;4.68;;;;;;;11.84;91.02;101868.44;5057854;28;20036;-69
2022/05/21 03:27:49;;;;;;;11.07;4.97;;;;;;;11.84;91.83;101871.09;5060278;28;20036;-69
2022/05/21 03:30:16;;;;;;;12.68;4.18;;;;;;;11.81;90.99;101863.41;5058384;28;20094;-70
2022/05/21 03:32:42;;;;;;;8.88;4.35;;;;;;;11.81;90.71;101874.09;5061166;28;20020;-70
2022/05/21 03:35:09;;;;;;;15.63;4.88;;;;;;;11.79;91.04;101869.97;5059131;28;20040;-70
2022/05/21 03:37:37;;;;;;;13.98;5.20;;;;;;;11.71;91.38;101854.84;5059375;28;20036;-70
2022/05/21 03:40:04;;;;;;;11.00;5.40;;;;;;;11.78;91.14;101871.78;5058025;28;20082;-70
2022/05/21 03:42:29;;;;;;;12.30;4.22;;;;;;;11.79;91.52;101875.31;5059431;28;20103;-69
2022/05/21 03:44:55;;;;;;;12.43;5.25;;;;;;;11.80;91.36;101883.16;5041888;28;20413;-69
2022/05/21 03:47:20;;;;;;;10.68;5.10;;;;;;;11.79;91.28;101886.84;5057034;28;20061;-69
2022/05/21 03:49:45;;;;;;;12.73;4.13;;;;;;;11.79;91.00;101883.34;5059344;28;20128;-69
2022/05/21 03:52:11;;;;;;;12.02;5.13;;;;;;;11.80;91.07;101882.31;5060412;28;20036;-69
2022/05/21 03:54:36;;;;;;;11.20;5.20;;;;;;;11.81;91.08;101879.44;5061061;28;20117;-69
2022/05/21 03:57:02;;;;;;;11.23;5.75;;;;;;;11.81;91.18;101892.00;5057461;28;20457;-69
2022/05/21 03:59:27;;;;;;;15.88;5.55;;;;;;;11.81;90.75;101879.44;5060912;28;20033;-69
2022/05/21 04:01:53;;;;;;;16.23;6.47;;;;;;;11.81;90.98;101879.44;5040179;28;20090;-69
2022/05/21 04:04:18;;;;;;;10.93;4.13;;;;;;;11.80;91.51;101887.66;5059042;28;20426;-69
2022/05/21 04:06:43;;;;;;;11.90;5.22;;;;;;;11.83;91.48;101881.94;5057085;28;20033;-69
2022/05/21 04:09:10;;;;;;;12.70;5.72;;;;;;;11.84;91.33;101888.94;5056801;28;20082;-69
2022/05/21 04:11:35;;;;;;;10.35;5.15;;;;;;;11.84;91.46;101892.47;5058237;28;20032;-69
2022/05/21 04:14:01;;;;;;;14.25;5.65;;;;;;;11.85;91.70;101894.13;5061195;28;20388;-69
2022/05/21 04:16:26;;;;;;;14.75;6.72;;;;;;;11.87;91.81;101895.81;5064177;28;20224;-69
2022/05/21 04:18:53;;;;;;;9.95;4.90;;;;;;;11.86;91.72;101900.34;5064128;28;20063;-69
2022/05/21 04:21:19;;;;;;;11.23;5.20;;;;;;;11.86;91.92;101911.03;5064010;28;20040;-70
2022/05/21 04:23:44;;;;;;;15.35;6.28;;;;;;;11.87;91.73;101898.47;5062802;28;20089;-70
2022/05/21 04:26:09;;;;;;;12.25;5.13;;;;;;;11.88;91.71;101905.50;5062940;28;20055;-70
2022/05/21 04:28:35;;;;;;;10.23;4.60;;;;;;;11.90;91.71;101909.66;5044445;28;20029;-70
2022/05/21 04:31:00;;;;;;;13.32;6.95;;;;;;;11.91;91.58;101907.81;5062731;28;20032;-70
2022/05/21 04:33:26;;;;;;;16.15;5.70;;;;;;;11.89;91.51;101905.31;5062954;28;20032;-70
2022/05/21 04:38:35;;;;;;;13.35;5.13;;;;;;;11.93;91.59;101917.31;5066934;28;20031;-70
2022/05/21 04:41:00;;;;;;;15.82;6.50;;;;;;;11.96;91.73;101916.13;5063810;28;20037;-70
2022/05/21 04:43:26;;;;;;;15.85;5.90;;;;;;;11.98;91.74;101916.78;5059335;28;20041;-70
2022/05/21 04:45:53;;;;;;;16.20;6.32;;;;;;;12.03;91.49;101925.13;5064293;28;20115;-70
2022/05/21 04:48:18;;;;;;;13.77;5.95;;;;;;;12.04;91.19;101916.88;5061636;28;20024;-69
2022/05/21 04:50:44;;;;;;;15.73;5.65;;;;;;;12.10;91.39;101926.03;5061621;28;20077;-69
2022/05/21 04:53:09;;;;;;;12.05;5.50;;;;;;;12.10;91.66;101915.34;5062514;28;20123;-69
2022/05/21 04:55:35;;;;;;;13.82;6.32;;;;;;;12.13;91.44;101911.47;5063431;28;20043;-69
2022/05/21 04:58:00;;;;;;;11.73;5.55;;;;;;;12.14;91.35;101922.00;5063182;28;20028;-69
2022/05/21 05:00:27;;;;;;;15.15;7.03;;;;;;;12.16;91.26;101922.66;5061401;28;20040;-70
2022/05/21 05:02:52;;;;;;;17.48;6.22;;;;;;;12.18;91.44;101922.47;5061615;28;20025;-70
2022/05/21 05:05:17;;;;;;;15.48;7.30;;;;;;;12.19;90.86;101926.81;5062519;28;20028;-70
2022/05/21 05:07:43;;;;;;;24.13;6.47;;;;;;;12.21;91.20;101925.63;5061887;28;20108;-69
2022/05/21 05:10:09;;;;;;;14.70;5.68;;;;;;;12.20;91.25;101931.13;5063834;28;20694;-69
2022/05/21 05:12:35;;;;;;;14.10;6.13;;;;;;;12.25;91.16;101928.75;5047408;28;20047;-69
2022/05/21 05:15:01;;;;;;;10.25;5.63;;;;;;;12.28;90.73;101926.53;5063230;28;20036;-69
2022/05/21 05:17:28;;;;;;;12.18;5.30;;;;;;;12.31;90.81;101927.19;5063984;28;20107;-69
2022/05/21 05:19:56;;;;;;;20.45;6.80;;;;;;;12.34;91.14;101927.69;5066736;28;20074;-69
2022/05/21 05:22:22;;;;;;;15.63;5.57;;;;;;;12.37;90.62;101932.66;5060097;28;20040;-69
2022/05/21 05:24:48;;;;;;;17.95;6.60;;;;;;;12.38;90.33;101941.50;5066077;28;20036;-69
2022/05/21 05:27:13;;;;;;;13.43;6.47;;;;;;;12.41;90.83;101943.81;5059049;28;20044;-69
2022/05/21 05:29:39;;;;;;;14.60;5.38;;;;;;;12.41;90.68;101938.47;5061294;28;20029;-69
2022/05/21 05:32:05;;;;;;;17.48;7.93;;;;;;;12.47;90.82;101935.06;5062863;28;20078;-69
2022/05/21 05:34:31;;;;;;;13.40;7.05;;;;;;;12.43;90.20;101949.81;5065151;28;20701;-69
2022/05/21 05:36:56;;;;;;;18.40;7.88;;;;;;;12.43;91.31;101957.84;5060121;28;20021;-69
2022/05/21 05:39:22;;;;;;;22.92;8.85;;;;;;;12.40;90.78;101945.66;5060491;28;20029;-69
2022/05/21 05:41:47;;;;;;;16.45;6.57;;;;;;;12.41;90.53;101958.03;5062083;28;20115;-69
2022/05/21 05:44:13;;;;;;;16.63;7.72;;;;;;;12.42;90.92;101966.91;5059738;28;20460;-69
2022/05/21 05:46:38;;;;;;;20.27;8.63;;;;;;;12.40;90.46;101966.25;5063945;28;20071;-70
2022/05/21 05:49:04;;;;;;;16.58;8.10;;;;;;;12.44;90.55;101951.47;5062678;28;20021;-70
2022/05/21 05:51:29;;;;;;;11.18;6.35;;;;;;;12.46;90.99;101961.00;5061350;28;20025;-70
2022/05/21 05:53:55;;;;;;;21.83;8.80;;;;;;;12.51;90.12;101960.44;5061473;28;20181;-70
2022/05/21 05:56:21;;;;;;;23.67;8.82;;;;;;;12.58;90.20;101960.56;5044833;28;20032;-69
2022/05/21 06:01:31;;;;;;;20.50;9.13;;;;;;;12.68;90.58;101959.28;5060916;28;20043;-69
2022/05/21 06:03:56;;;;;;;16.92;8.95;;;;;;;12.76;89.88;101960.19;5060986;28;20893;-69
2022/05/21 06:06:22;;;;;;;22.08;9.80;;;;;;;12.76;89.56;101954.84;5061876;28;20033;-70
2022/05/21 06:08:48;;;;;;;18.20;8.50;;;;;;;12.74;89.95;101959.56;5057504;28;20028;-70
2022/05/21 06:11:15;;;;;;;28.42;10.90;;;;;;;12.72;90.04;101952.53;5061548;28;20036;-69
2022/05/21 06:13:41;;;;;;;17.48;8.93;;;;;;;12.81;90.10;101958.66;5043425;28;20499;-69
2022/05/21 06:16:06;;;;;;;25.02;10.00;;;;;;;12.85;89.58;101964.47;5059245;28;20041;-69
2022/05/21 06:18:32;;;;;;;19.88;9.23;;;;;;;12.83;89.54;101969.97;5060589;28;20032;-69
2022/05/21 06:21:05;;;;;;;20.17;8.38;;;;;;;12.83;90.22;101969.16;5061931;28;20034;-69
2022/05/21 06:23:32;;;;;;;25.48;9.38;;;;;;;12.90;89.65;101964.72;5058498;28;20474;-70
2022/05/21 06:25:59;;;;;;;20.70;8.88;;;;;;;13.03;89.54;101967.59;5057465;28;20025;-70
2022/05/21 06:28:25;;;;;;;19.83;8.73;;;;;;;13.10;89.44;101973.88;5056955;28;20029;-68
2022/05/21 06:30:51;;;;;;;17.15;7.82;;;;;;;13.13;89.44;101970.00;5059472;28;20483;-69
2022/05/21 06:33:25;;;;;;;23.98;10.07;;;;;;;13.16;88.74;101975.81;5056684;28;20063;-70
2022/05/21 06:36:11;;;;;;;20.60;10.07;;;;;;;13.12;89.04;101981.72;5058520;28;20021;-70
2022/05/21 06:38:38;;;;;;;23.98;8.60;;;;;;;13.09;88.79;101979.41;5060893;28;20021;-71
2022/05/21 06:41:03;;;;;;;23.83;9.00;;;;;;;13.12;88.93;101987.06;5060075;28;20366;-70
2022/05/21 06:43:29;;;;;;;22.52;9.63;;;;;;;13.23;89.43;101988.44;5059985;28;20090;-70
2022/05/21 06:45:55;;;;;;;16.55;8.23;;;;;;;13.27;89.08;101982.56;5061695;28;20074;-70
2022/05/21 06:48:20;;;;;;;20.42;8.90;;;;;;;13.34;87.64;101996.06;5044462;28;20393;-71
2022/05/21 06:50:46;;;;;;;17.33;8.25;;;;;;;13.36;88.01;101989.50;5060949;28;20127;-71
2022/05/21 06:53:12;;;;;;;21.05;9.88;;;;;;;13.54;87.89;102002.47;5062686;28;20093;-70
2022/05/21 06:55:39;;;;;;;25.40;10.27;;;;;;;13.58;86.43;101993.06;5059539;28;20054;-71
2022/05/21 06:58:05;;;;;;;19.52;9.80;;;;;;;13.67;86.58;101995.63;5061066;28;20120;-70
2022/05/21 07:00:31;;;;;;;21.25;9.07;;;;;;;13.66;85.44;101991.28;5059856;28;20120;-70
2022/05/21 07:02:57;;;;;;;24.27;8.98;;;;;;;13.69;85.68;102001.63;5057406;28;20428;-70
2022/05/21 07:08:17;;;;;;;18.95;9.13;;;;;;;13.84;85.56;101996.22;5060938;28;20048;-70
2022/05/21 07:10:42;;;;;;;21.17;9.98;;;;;;;13.85;84.47;102003.25;5061547;28;20031;-70
2022/05/21 07:13:07;;;;;;;22.17;10.10;;;;;;;13.81;85.71;102002.81;5060545;28;20025;-71
2022/05/21 07:15:33;;;;;;;26.45;10.65;;;;;;;13.85;84.64;102012.13;5062302;28;20041;-71
2022/05/21 07:18:00;;;;;;;20.85;9.52;;;;;;;13.89;84.82;102008.03;5057430;28;20032;-70
2022/05/21 07:20:27;;;;;;;21.13;9.02;;;;;;;13.96;85.95;102008.09;5057418;28;20271;-71
2022/05/21 07:22:52;;;;;;;21.60;9.52;;;;;;;14.05;84.24;102009.66;5059114;28;20068;-71
2022/05/21 07:25:23;;;;;;;22.83;9.65;;;;;;;14.14;84.23;102019.22;5061743;28;20063;-70
2022/05/21 07:27:49;;;;;;;20.38;8.38;;;;;;;14.13;82.23;102033.66;5056367;28;20044;-71
2022/05/21 07:30:15;;;;;;;16.08;7.72;;;;;;;14.08;82.60;102029.91;5060595;28;20025;-71
2022/05/21 07:32:41;;;;;;;20.52;8.82;;;;;;;14.05;81.50;102035.66;5060950;28;20081;-71
2022/05/21 07:35:11;;;;;;;13.55;7.25;;;;;;;14.10;82.52;102033.22;5061236;28;20032;-71
2022/05/21 07:37:37;;;;;;;21.98;8.90;;;;;;;14.11;83.85;102018.78;5059946;28;20032;-71
2022/05/21 07:40:04;;;;;;;21.80;8.95;;;;;;;14.23;82.52;102033.34;5057486;28;20029;-71
2022/05/21 07:42:30;;;;;;;19.15;7.90;;;;;;;14.25;82.33;102036.66;5060355;28;20059;-71
2022/05/21 07:44:56;;;;;;;16.45;7.95;;;;;;;14.22;82.72;102035.19;5059359;28;20037;-70
2022/05/21 07:47:24;;;;;;;15.88;7.57;;;;;;;14.25;82.18;102032.16;5058824;28;20373;-71
2022/05/21 07:49:56;;;;;;;20.00;8.27;;;;;;;14.31;81.82;102035.09;5064262;28;20035;-71
2022/05/21 07:52:22;;;;;;;22.38;8.23;;;;;;;14.37;82.64;102037.81;5042670;28;20025;-71
2022/05/21 07:54:47;;;;;;;22.55;10.80;;;;;;;14.46;81.29;102046.56;5062193;28;20025;-71
2022/05/21 07:57:13;;;;;;;16.30;7.20;;;;;;;14.50;80.34;102050.53;5064298;28;20033;-71
2022/05/21 07:59:38;;;;;;;15.43;8.15;;;;;;;14.60;81.35;102050.22;5063162;28;20040;-71
2022/05/21 08:02:05;;;;;;;16.48;8.30;;;;;;;14.62;81.05;102058.94;5063656;28;20032;-71
2022/05/21 08:04:30;;;;;;;17.55;8.20;;;;;;;14.83;79.16;102044.63;5066777;28;20028;-71
2022/05/21 08:06:55;;;;;;;22.20;9.18;;;;;;;15.08;79.53;102047.69;5063987;28;20078;-71
2022/05/21 08:09:22;;;;;;;17.13;8.35;;;;;;;16.40;74.94;102051.91;5063395;28;21018;-71
2022/05/21 08:11:47;;;;;;;21.52;7.43;;;;;;;17.05;71.22;102060.19;5064469;28;20029;-71
2022/05/21 08:14:13;;;;;;;16.73;8.30;;;;;;;16.93;70.77;102067.28;5064749;28;20063;-71
2022/05/21 08:16:38;;;;;;;19.40;7.75;;;;;;;16.95;69.53;102070.59;5062867;28;20067;-71
2022/05/21 08:19:04;;;;;;;15.88;6.75;;;;;;;16.57;72.86;102068.50;5063260;28;20056;-71
2022/05/21 08:21:31;;;;;;;14.43;7.28;;;;;;;16.47;73.63;102071.59;5062335;28;20037;-71
2022/05/21 08:27:02;;;;;;;18.02;6.50;;;;;;;16.35;72.58;102062.50;5062504;28;20067;-71
2022/05/21 08:29:34;;;;;;;16.27;6.85;;;;;;;16.57;72.45;102055.84;5063475;28;20037;-71
2022/05/21 08:32:02;;;;;;;14.45;6.63;;;;;;;17.17;68.38;102061.22;5059448;28;20033;-71
2022/05/21 08:34:28;;;;;;;16.63;7.07;;;;;;;17.71;67.28;102053.78;5061515;28;20037;-71
2022/05/21 08:36:53;;;;;;;17.27;7.75;;;;;;;19.10;63.25;102043.03;5061937;28;20033;-71
2022/05/21 08:39:20;;;;;;;14.73;5.93;;;;;;;20.29;59.94;102049.63;5063312;28;20044;-71
2022/05/21 08:41:54;;;;;;;17.95;6.82;;;;;;;21.60;57.11;102054.00;5060799;28;20032;-71
2022/05/21 08:44:47;;;;;;;15.82;6.07;;;;;;;21.92;54.43;102059.75;5063743;28;20044;-71
2022/05/21 08:47:35;;;;;;;16.52;6.32;;;;;;;20.83;57.60;102057.75;5048342;28;20037;-71
2022/05/21 08:50:12;;;;;;;14.10;6.25;;;;;;;20.52;57.16;102050.75;5061615;28;20032;-71
2022/05/21 08:52:57;;;;;;;14.77;6.10;;;;;;;20.94;56.75;102061.50;5062057;28;20023;-71
2022/05/21 08:55:36;;;;;;;12.15;5.72;;;;;;;20.38;56.65;102058.22;5062669;28;20025;-71
2022/05/21 08:58:23;;;;;;;10.13;5.68;;;;;;;19.27;59.77;102063.03;5061873;28;20024;-71
2022/05/21 09:00:49;;;;;;;14.55;6.93;;;;;;;18.53;60.30;102053.94;5027804;28;20395;-71
2022/05/21 09:03:18;;;;;;;17.58;6.32;;;;;;;17.94;62.63;102051.41;5064069;28;20033;-71
2022/05/21 09:05:48;;;;;;;14.30;5.45;;;;;;;17.65;63.88;102047.38;5060319;28;20040;-71
2022/05/21 09:08:28;;;;;;;17.40;6.78;;;;;;;17.58;65.33;102051.13;5063242;28;20032;-71
2022/05/21 09:11:15;;;;;;;20.67;6.32;;;;;;;17.43;65.07;102054.94;5063300;28;20483;-72
2022/05/21 09:13:59;;;;;;;10.95;5.47;;;;;;;17.45;66.58;102055.56;5060710;28;20032;-71
2022/05/21 09:19:09;;;;;;;11.85;6.15;;;;;;;17.37;65.31;102045.00;5063265;28;20040;-71
2022/05/21 09:21:41;;;;;;;15.80;5.40;;;;;;;17.36;65.20;102048.72;5059442;28;20380;-71
2022/05/21 09:24:08;;;;;;;14.43;5.28;;;;;;;17.31;64.86;102043.13;5061330;28;20030;-71
2022/05/21 09:26:46;;;;;;;8.68;5.22;;;;;;;17.25;65.18;102049.38;5061988;28;20120;-71
2022/05/21 09:29:19;;;;;;;14.27;6.40;;;;;;;17.28;66.51;102041.69;5061411;28;20414;-71
2022/05/21 09:31:45;;;;;;;13.35;6.00;;;;;;;17.51;69.06;102040.38;5060451;28;20526;-71
2022/05/21 09:34:23;;;;;;;13.00;6.55;;;;;;;17.55;66.07;102049.69;5043307;28;20040;-71
2022/05/21 09:36:48;;;;;;;14.13;6.25;;;;;;;17.64;66.43;102043.03;5060663;28;20028;-71
2022/05/21 09:39:35;;;;;;;18.67;7.32;;;;;;;17.90;66.02;102034.00;5061417;28;20029;-71
2022/05/21 09:45:22;;;;;;;15.48;7.00;;;;;;;17.95;65.63;102047.66;5063506;28;20164;-71
2022/05/21 09:48:12;;;;;;;15.98;5.28;;;;;;;17.70;65.54;102049.44;5061393;28;20099;-71
2022/05/21 09:50:57;;;;;;;9.70;3.85;;;;;;;17.69;64.38;102053.19;5062064;28;20077;-71
2022/05/21 09:53:29;;;;;;;11.48;4.28;;;;;;;17.80;64.65;102049.81;5059764;28;20094;-71
2022/05/21 09:56:16;;;;;;;12.15;4.38;;;;;;;18.04;64.22;102042.84;5060844;28;20029;-71
2022/05/21 09:58:43;;;;;;;13.00;4.32;;;;;;;17.92;63.01;102031.91;5061654;28;20052;-71
2022/05/21 10:01:14;;;;;;;13.65;4.88;;;;;;;17.64;63.99;102051.13;5042811;28;20089;-71
2022/05/21 10:03:45;;;;;;;16.48;6.75;;;;;;;17.21;63.92;102057.09;5061907;28;20025;-72
2022/05/21 10:06:32;;;;;;;15.23;7.67;;;;;;;16.86;66.45;102051.13;5063724;28;20020;-72
2022/05/21 10:11:59;;;;;;;12.93;6.60;;;;;;;16.77;66.11;102052.34;5058720;28;20047;-71
2022/05/21 10:14:37;;;;;;;14.07;6.30;;;;;;;17.04;66.79;102050.47;5062361;28;20086;-73
2022/05/21 10:17:25;;;;;;;10.18;5.18;;;;;;;17.39;65.94;102052.88;5061065;28;20107;-71
2022/05/21 10:20:07;;;;;;;12.30;5.32;;;;;;;17.66;65.39;102051.75;5062041;28;20027;-71
2022/05/21 10:22:51;;;;;;;;;;;;;;;17.90;65.37;102058.28;5060426;28;20484;-71
2022/05/21 10:25:20;;;;;;;10.98;4.85;;;;;;;18.05;64.27;102059.84;5042117;28;19913;-72
2022/05/21 10:28:04;;;;;;;14.32;5.72;;;;;;;18.18;65.69;102065.19;5058078;28;20388;-71
2022/05/21 10:30:48;;;;;;;12.75;5.70;;;;;;;18.11;63.65;102061.72;5059811;28;20036;-71
2022/05/21 10:33:19;;;;;;;18.67;7.07;;;;;;;18.04;64.86;102053.63;5059737;28;20025;-71
2022/05/21 10:36:03;;;;;;;15.85;6.38;;;;;;;18.07;63.03;102055.06;5062689;28;20052;-71
2022/05/21 10:38:28;;;;;;;8.90;4.75;;;;;;;18.24;66.01;102055.41;5057285;28;20056;-72
2022/05/21 10:40:58;;;;;;;14.57;5.17;;;;;;;18.17;63.49;102052.72;5057573;28;20075;-72
2022/05/21 10:43:45;;;;;;;14.05;5.68;;;;;;;18.34;63.62;102064.66;5059981;28;20742;-72
2022/05/21 10:46:35;;;;;;;13.98;5.45;;;;;;;18.39;64.70;102070.25;5061321;28;20049;-71
2022/05/21 10:49:23;;;;;;;13.93;5.55;;;;;;;18.21;63.84;102056.66;5057721;28;20102;-72
2022/05/21 10:52:02;;;;;;;8.38;4.47;;;;;;;18.00;63.83;102062.38;5061263;28;20033;-72
2022/05/21 10:54:40;;;;;;;13.35;4.78;;;;;;;17.63;63.68;102070.22;5058474;28;20028;-71
2022/05/21 10:57:14;;;;;;;13.70;5.38;;;;;;;17.33;66.06;102076.13;5059683;28;20369;-71
2022/05/21 10:59:58;;;;;;;13.85;6.93;;;;;;;17.08;65.82;102076.81;5060840;28;20032;-71
2022/05/21 11:02:51;;;;;;;10.60;6.50;;;;;;;16.96;66.05;102083.88;5060306;28;20472;-71
2022/05/21 11:05:16;;;;;;;12.15;5.70;;;;;;;16.90;66.09;102079.31;5060184;28;20032;-72
2022/05/21 11:08:00;;;;;;;14.83;5.70;;;;;;;17.02;67.20;102076.81;5055666;28;20032;-71
2022/05/21 11:10:39;;;;;;;12.45;6.20;;;;;;;17.23;65.91;102075.72;5041043;28;20267;-71
2022/05/21 11:13:15;;;;;;;15.18;7.10;;;;;;;17.38;65.71;102084.41;5060389;28;20082;-72
2022/05/21 11:15:58;;;;;;;13.68;6.35;;;;;;;17.60;66.03;102078.72;5058356;28;20044;-71
2022/05/21 11:18:41;;;;;;;16.35;6.60;;;;;;;17.77;65.11;102069.13;5059705;28;20032;-71
2022/05/21 11:21:18;;;;;;;11.18;6.40;;;;;;;17.68;65.58;102079.34;5059031;28;20036;-71
2022/05/21 11:23:56;;;;;;;14.45;5.75;;;;;;;17.41;63.66;102086.69;5056337;28;20034;-71
2022/05/21 11:26:30;;;;;;;12.52;6.07;;;;;;;17.25;66.53;102087.97;5059975;28;20029;-71
2022/05/21 11:29:02;;;;;;;13.27;5.97;;;;;;;17.55;67.91;102087.47;5057035;28;20071;-71
2022/05/21 11:37:22;;;;;;;7.63;3.45;;;;;;;18.12;60.40;102077.69;5059772;28;20043;-72
2022/05/21 11:39:52;;;;;;;9.77;4.55;;;;;;;18.23;60.83;102076.16;5059853;28;20525;-71
2022/05/21 11:42:28;;;;;;;6.60;2.90;;;;;;;18.54;61.75;102072.59;5059449;28;20036;-72
2022/05/21 11:44:55;;;;;;;9.63;3.50;;;;;;;18.72;60.13;102077.25;5058511;28;20032;-72
2022/05/21 11:47:21;;;;;;;12.90;5.13;;;;;;;18.83;59.58;102062.22;5057766;28;20053;-72
2022/05/21 11:50:04;;;;;;;10.30;3.15;;;;;;;18.95;59.62;102067.72;5057658;28;20053;-72
2022/05/21 11:52:30;;;;;;;13.77;4.68;;;;;;;18.82;56.60;102068.69;5058954;28;20476;-72
2022/05/21 11:55:07;;;;;;;11.45;3.33;;;;;;;18.61;58.90;102069.88;5060649;28;20028;-71
2022/05/21 11:57:34;;;;;;;9.60;4.05;;;;;;;18.35;57.52;102070.91;5061830;28;20017;-73